Time,TemperatureF,DewpointF,PressureIn,WindDirection,WindDirectionDegrees,WindSpeedMPH,WindSpeedGustMPH,Humidity,HourlyPrecipIn,Conditions,Clouds,dailyrainin,SolarRadiationWatts/m^2,SoftwareType,DateUTC
2013-08-05 00:02:00,52.0,51.0,-100.00,NW,318,5.0,9.0,98,0.00,,,0.00,0.000000,,2013-08-05 07:02:00,
2013-08-05 00:11:00,52.0,51.0,-100.00,NW,318,5.0,9.0,98,0.00,,,0.00,0.000000,,2013-08-05 07:11:00,
2013-08-05 00:32:00,52.0,51.0,-100.00,North,350,0.0,6.0,98,0.00,,,0.00,0.000000,,2013-08-05 07:32:00,
2013-08-05 00:43:00,52.0,51.0,-100.00,North,350,0.0,6.0,98,0.00,,,0.00,0.000000,,2013-08-05 07:43:00,
2013-08-05 00:52:00,52.0,51.0,-100.00,North,350,0.0,6.0,98,0.00,,,0.00,0.000000,,2013-08-05 07:52:00,
2013-08-05 01:02:00,52.0,51.0,-100.00,North,350,0.0,6.0,98,0.00,,,0.00,0.000000,,2013-08-05 08:02:00,
2013-08-05 01:11:00,52.0,51.0,-100.00,North,350,0.0,6.0,98,0.00,,,0.00,0.000000,,2013-08-05 08:11:00,
2013-08-05 01:54:00,52.0,51.0,-100.00,NW,311,0.0,0.0,98,0.00,,,0.00,0.000000,,2013-08-05 08:54:00,
2013-08-05 02:04:00,52.0,51.0,-100.00,NW,311,0.0,0.0,98,0.00,,,0.00,0.000000,,2013-08-05 09:04:00,
2013-08-05 02:12:00,52.0,51.0,-100.00,NW,311,0.0,0.0,98,0.00,,,0.00,0.000000,,2013-08-05 09:12:00,
2013-08-05 02:42:00,52.0,52.0,-100.00,NNW,340,0.0,0.0,99,0.01,,,0.01,0.000000,,2013-08-05 09:42:00,
2013-08-05 02:48:00,52.0,52.0,-100.00,NNW,340,0.0,0.0,99,0.01,,,0.01,0.000000,,2013-08-05 09:48:00,
2013-08-05 02:53:00,52.0,52.0,-100.00,NNW,340,0.0,0.0,99,0.01,,,0.01,0.000000,,2013-08-05 09:53:00,
2013-08-05 03:04:00,52.0,52.0,-100.00,NNW,340,0.0,0.0,99,0.01,,,0.01,0.000000,,2013-08-05 10:04:00,
2013-08-05 03:12:00,52.0,52.0,-100.00,NNW,340,0.0,0.0,99,0.01,,,0.01,0.000000,,2013-08-05 10:12:00,
2013-08-05 03:50:00,51.0,51.0,-100.00,North,8,0.0,0.0,99,0.00,,,0.01,0.000000,,2013-08-05 10:50:00,
2013-08-05 04:04:00,51.0,51.0,-100.00,North,8,0.0,0.0,99,0.00,,,0.01,0.000000,,2013-08-05 11:04:00,
2013-08-05 04:12:00,51.0,51.0,-100.00,North,8,0.0,0.0,99,0.00,,,0.01,0.000000,,2013-08-05 11:12:00,
2013-08-05 04:52:00,51.0,51.0,-100.00,East,93,0.0,0.0,99,0.00,,,0.01,0.000000,,2013-08-05 11:52:00,
2013-08-05 04:58:00,51.0,51.0,-100.00,East,93,0.0,0.0,99,0.00,,,0.01,0.000000,,2013-08-05 11:58:00,
2013-08-05 05:12:00,51.0,51.0,-100.00,East,93,0.0,0.0,99,0.00,,,0.01,0.000000,,2013-08-05 12:12:00,
2013-08-05 05:51:00,51.0,51.0,-100.00,NNW,347,0.0,0.0,99,0.00,,,0.01,0.000000,,2013-08-05 12:51:00,
2013-08-05 06:02:00,51.0,51.0,-100.00,NNW,347,0.0,0.0,99,0.00,,,0.01,0.000000,,2013-08-05 13:02:00,
2013-08-05 06:45:00,51.0,51.0,-100.00,North,357,0.0,0.0,99,0.01,,,0.02,0.000000,,2013-08-05 13:45:00,
2013-08-05 06:54:00,51.0,51.0,-100.00,North,357,0.0,0.0,99,0.01,,,0.02,0.000000,,2013-08-05 13:54:00,
2013-08-05 07:03:00,51.0,51.0,-100.00,North,357,0.0,0.0,99,0.01,,,0.02,0.000000,,2013-08-05 14:03:00,
2013-08-05 07:48:00,51.0,51.0,-100.00,East,99,0.0,0.0,99,0.00,,,-99.99,18.000000,,2013-08-05 14:48:00,
2013-08-05 07:54:00,51.0,51.0,-100.00,East,99,0.0,0.0,99,0.00,,,-99.99,18.000000,,2013-08-05 14:54:00,
2013-08-05 08:03:00,51.0,51.0,-100.00,East,99,0.0,0.0,99,0.00,,,-99.99,18.000000,,2013-08-05 15:03:00,
2013-08-05 08:12:00,51.0,51.0,-100.00,East,99,0.0,0.0,99,0.00,,,-99.99,18.000000,,2013-08-05 15:12:00,
2013-08-05 08:58:00,52.0,52.0,-100.00,NNE,22,0.0,0.0,99,0.00,,,0.02,84.000000,,2013-08-05 15:58:00,
2013-08-05 09:04:00,52.0,52.0,-100.00,NNE,22,0.0,0.0,99,0.00,,,0.02,84.000000,,2013-08-05 16:04:00,
2013-08-05 09:12:00,52.0,52.0,-100.00,NNE,22,0.0,0.0,99,0.00,,,0.02,84.000000,,2013-08-05 16:12:00,
2013-08-05 09:45:00,54.0,53.0,-100.00,NNE,12,0.0,0.0,98,0.00,,,0.02,183.000000,,2013-08-05 16:45:00,
2013-08-05 09:59:00,54.0,53.0,-100.00,NNE,12,0.0,0.0,98,0.00,,,0.02,183.000000,,2013-08-05 16:59:00,
2013-08-05 10:12:00,54.0,53.0,-100.00,NNE,12,0.0,0.0,98,0.00,,,0.02,183.000000,,2013-08-05 17:12:00,
2013-08-05 10:50:00,56.0,55.0,-100.00,NW,317,3.0,5.0,97,0.00,,,0.02,299.000000,,2013-08-05 17:50:00,
2013-08-05 10:58:00,56.0,55.0,-100.00,NW,317,3.0,5.0,97,0.00,,,0.02,299.000000,,2013-08-05 17:58:00,
2013-08-05 11:03:00,56.0,55.0,-100.00,NW,317,3.0,5.0,97,0.00,,,0.02,299.000000,,2013-08-05 18:03:00,
2013-08-05 11:45:00,59.0,58.0,-100.00,WNW,288,3.0,6.0,96,0.00,,,-99.99,468.000000,,2013-08-05 18:45:00,
2013-08-05 11:54:00,59.0,58.0,-100.00,WNW,288,3.0,6.0,96,0.00,,,-99.99,468.000000,,2013-08-05 18:54:00,
2013-08-05 12:12:00,59.0,58.0,-100.00,WNW,288,3.0,6.0,96,0.00,,,-99.99,468.000000,,2013-08-05 19:12:00,
2013-08-05 12:56:00,65.0,62.0,-100.00,NW,319,6.0,10.0,90,0.00,,,0.02,949.000000,,2013-08-05 19:56:00,
2013-08-05 13:04:00,65.0,62.0,-100.00,NW,319,6.0,10.0,90,0.00,,,0.02,949.000000,,2013-08-05 20:04:00,
2013-08-05 13:12:00,65.0,62.0,-100.00,NW,319,6.0,10.0,90,0.00,,,0.02,949.000000,,2013-08-05 20:12:00,
2013-08-05 13:48:00,71.0,59.0,-100.00,NW,322,8.0,11.0,65,0.00,,,0.02,1033.000000,,2013-08-05 20:48:00,
2013-08-05 13:59:00,71.0,59.0,-100.00,NW,322,8.0,11.0,65,0.00,,,0.02,1033.000000,,2013-08-05 20:59:00,
2013-08-05 14:12:00,71.0,59.0,-100.00,NW,322,8.0,11.0,65,0.00,,,0.02,1033.000000,,2013-08-05 21:12:00,
2013-08-05 14:48:00,77.0,61.0,-100.00,NW,322,9.0,14.0,57,0.00,,,0.02,1037.000000,,2013-08-05 21:48:00,
2013-08-05 14:53:00,77.0,61.0,-100.00,NW,322,9.0,14.0,57,0.00,,,0.02,1037.000000,,2013-08-05 21:53:00,
2013-08-05 15:44:00,76.0,58.0,-100.00,North,359,8.0,20.0,54,0.00,,,0.02,988.000000,,2013-08-05 22:44:00,
2013-08-05 15:53:00,76.0,58.0,-100.00,North,359,8.0,20.0,54,0.00,,,0.02,988.000000,,2013-08-05 22:53:00,
2013-08-05 17:45:00,73.0,57.0,-100.00,North,5,7.0,12.0,58,0.00,,,0.02,710.000000,,2013-08-06 00:45:00,
2013-08-05 17:57:00,73.0,57.0,-100.00,North,5,7.0,12.0,58,0.00,,,0.02,710.000000,,2013-08-06 00:57:00,
2013-08-05 18:12:00,73.0,57.0,-100.00,North,5,7.0,12.0,58,0.00,,,0.02,710.000000,,2013-08-06 01:12:00,
2013-08-05 18:42:00,71.0,55.0,-100.00,NW,316,11.0,15.0,58,0.00,,,0.02,504.000000,,2013-08-06 01:42:00,
2013-08-05 18:51:00,71.0,55.0,-100.00,NW,316,11.0,15.0,58,0.00,,,0.02,504.000000,,2013-08-06 01:51:00,
2013-08-05 18:59:00,71.0,55.0,-100.00,NW,316,11.0,15.0,58,0.00,,,0.02,504.000000,,2013-08-06 01:59:00,
2013-08-05 19:48:00,68.0,54.0,-100.00,NW,312,8.0,15.0,61,0.00,,,0.02,284.000000,,2013-08-06 02:48:00,
2013-08-05 20:01:00,68.0,54.0,-100.00,NW,312,8.0,15.0,61,0.00,,,0.02,284.000000,,2013-08-06 03:01:00,
2013-08-05 20:12:00,68.0,54.0,-100.00,NW,312,8.0,15.0,61,0.00,,,0.02,284.000000,,2013-08-06 03:12:00,
2013-08-05 20:35:00,63.0,53.0,-100.00,NW,326,6.0,10.0,71,0.00,,,0.02,91.000000,,2013-08-06 03:35:00,
2013-08-05 20:45:00,63.0,53.0,-100.00,NW,326,6.0,10.0,71,0.00,,,0.02,91.000000,,2013-08-06 03:45:00,
2013-08-05 20:52:00,63.0,53.0,-100.00,NW,326,6.0,10.0,71,0.00,,,0.02,91.000000,,2013-08-06 03:52:00,
2013-08-05 21:01:00,63.0,53.0,-100.00,NW,326,6.0,10.0,71,0.00,,,0.02,91.000000,,2013-08-06 04:01:00,
2013-08-05 21:11:00,63.0,53.0,-100.00,NW,326,6.0,10.0,71,0.00,,,0.02,91.000000,,2013-08-06 04:11:00,
2013-08-05 21:33:00,59.0,53.0,-100.00,WSW,246,2.0,7.0,80,0.00,,,0.02,6.000000,,2013-08-06 04:33:00,
2013-08-05 21:44:00,59.0,53.0,-100.00,WSW,246,2.0,7.0,80,0.00,,,0.02,6.000000,,2013-08-06 04:44:00,
2013-08-05 21:53:00,59.0,53.0,-100.00,WSW,246,2.0,7.0,80,0.00,,,0.02,6.000000,,2013-08-06 04:53:00,
2013-08-05 22:02:00,59.0,53.0,-100.00,WSW,246,2.0,7.0,80,0.00,,,0.02,6.000000,,2013-08-06 05:02:00,
2013-08-05 22:11:00,59.0,53.0,-100.00,WSW,246,2.0,7.0,80,0.00,,,0.02,6.000000,,2013-08-06 05:11:00,
2013-08-05 22:32:00,55.0,52.0,-100.00,SW,227,1.0,3.0,88,0.00,,,0.02,0.000000,,2013-08-06 05:32:00,
2013-08-05 22:43:00,55.0,52.0,-100.00,SW,227,1.0,3.0,88,0.00,,,0.02,0.000000,,2013-08-06 05:43:00,
2013-08-05 22:53:00,55.0,52.0,-100.00,SW,227,1.0,3.0,88,0.00,,,0.02,0.000000,,2013-08-06 05:53:00,
2013-08-05 23:01:00,55.0,52.0,-100.00,SW,227,1.0,3.0,88,0.00,,,0.02,0.000000,,2013-08-06 06:01:00,
2013-08-05 23:11:00,55.0,52.0,-100.00,SW,227,1.0,3.0,88,0.00,,,0.02,0.000000,,2013-08-06 06:11:00,
2013-08-05 23:43:00,51.0,50.0,-100.00,SW,232,2.0,4.0,95,0.00,,,0.02,0.000000,,2013-08-06 06:43:00,
2013-08-05 23:52:00,51.0,50.0,-100.00,SW,232,2.0,4.0,95,0.00,,,0.02,0.000000,,2013-08-06 06:52:00,